Time;durP1;ratioP1;P1;durP2;ratioP2;P2;SDS_P1;SDS_P2;PMS_P1;PMS_P2;Temp;Humidity;BMP_temperature;BMP_pressure;BME280_temperature;BME280_humidity;BME280_pressure;Samples;Min_cycle;Max_cycle;Signal;HPM_P1;HPM_P2
2022/08/05 00:02:19;;;;;;;9.90;2.67;;;;;;;;;;4972810;28;99053;-71
2022/08/05 00:04:46;;;;;;;8.13;2.58;;;;;;;;;;4991227;28;99080;-71
2022/08/05 00:07:20;;;;;;;8.95;2.85;;;;;;;;;;4992330;28;98123;-71
2022/08/05 00:10:07;;;;;;;8.55;2.85;;;;;;;;;;4992393;28;98421;-70
2022/08/05 00:12:34;;;;;;;11.13;3.15;;;;;;;;;;4991717;28;100358;-71
2022/08/05 00:15:20;;;;;;;7.35;2.45;;;;;;;;;;4991151;28;99742;-70
2022/08/05 00:18:07;;;;;;;8.68;2.88;;;;;;;;;;4992120;28;99624;-71
2022/08/05 00:20:33;;;;;;;6.75;2.75;;;;;;;;;;4995435;28;99395;-71
2022/08/05 00:23:00;;;;;;;9.63;2.75;;;;;;;;;;4991466;28;101118;-71
2022/08/05 00:25:38;;;;;;;11.65;2.95;;;;;;;;;;4991538;28;100151;-71
2022/08/05 00:28:12;;;;;;;8.43;2.53;;;;;;;;;;4990988;28;98964;-70
2022/08/05 00:30:38;;;;;;;10.52;3.33;;;;;;;;;;4989484;28;99090;-70
2022/08/05 00:33:07;;;;;;;8.90;2.75;;;;;;;;;;4972272;28;98627;-71
2022/08/05 00:35:53;;;;;;;7.70;2.97;;;;;;;;;;4970910;28;98670;-70
2022/08/05 00:38:42;;;;;;;5.75;2.55;;;;;;;;;;4970361;28;99933;-71
2022/08/05 00:41:08;;;;;;;5.10;2.47;;;;;;;;;;4978519;28;100484;-70
2022/08/05 00:43:37;;;;;;;12.65;2.78;;;;;;;;;;4993624;28;98503;-70
2022/08/05 00:46:12;;;;;;;6.90;2.90;;;;;;;;;;4991029;28;99553;-70
2022/08/05 00:48:39;;;;;;;10.55;2.90;;;;;;;;;;4991271;28;98567;-71
2022/08/05 00:51:17;;;;;;;8.60;2.60;;;;;;;;;;4990982;28;99706;-71
2022/08/05 00:54:03;;;;;;;8.55;2.90;;;;;;;;;;4990881;28;99982;-71
2022/08/05 00:56:30;;;;;;;7.10;3.40;;;;;;;;;;4991005;28;98962;-71
2022/08/05 00:58:56;;;;;;;9.68;2.80;;;;;;;;;;4992688;28;99151;-70
2022/08/05 01:01:25;;;;;;;8.57;3.17;;;;;;;;;;4991259;28;99684;-70
2022/08/05 01:04:11;;;;;;;6.63;2.88;;;;;;;;;;4990445;28;99967;-71
2022/08/05 01:06:39;;;;;;;6.88;2.53;;;;;;;;;;4994379;28;99159;-71
2022/08/05 01:09:08;;;;;;;8.32;2.70;;;;;;;;;;4992432;27;98594;-71
2022/08/05 01:11:36;;;;;;;10.77;2.95;;;;;;;;;;4990392;28;99892;-71
2022/08/05 01:14:05;;;;;;;8.63;2.70;;;;;;;;;;4990898;28;99295;-70
2022/08/05 01:16:37;;;;;;;5.63;2.17;;;;;;;;;;5008660;28;98474;-71
2022/08/05 01:19:18;;;;;;;9.65;2.30;;;;;;;;;;5010293;28;99203;-71
2022/08/05 01:22:03;;;;;;;10.13;2.80;;;;;;;;;;5010555;28;98681;-71
2022/08/05 01:24:38;;;;;;;6.50;2.33;;;;;;;;;;5010801;28;98056;-71
2022/08/05 01:27:23;;;;;;;5.28;2.70;;;;;;;;;;5010858;28;98579;-70
2022/08/05 01:29:53;;;;;;;4.22;2.33;;;;;;;;;;5014110;28;99434;-70
2022/08/05 01:32:21;;;;;;;9.35;2.67;;;;;;;;;;5008718;28;99279;-71
2022/08/05 01:34:53;;;;;;;8.52;2.35;;;;;;;;;;5010594;28;98434;-71
2022/08/05 01:37:23;;;;;;;12.40;3.17;;;;;;;;;;5011717;28;98463;-70
2022/08/05 01:39:53;;;;;;;9.75;2.28;;;;;;;;;;5010172;28;100359;-71
2022/08/05 01:42:24;;;;;;;11.88;2.58;;;;;;;;;;5010444;28;99400;-71
2022/08/05 01:44:54;;;;;;;5.50;2.42;;;;;;;;;;5010823;28;98563;-71
2022/08/05 01:47:22;;;;;;;6.50;2.35;;;;;;;;;;5010331;28;100217;-71
2022/08/05 01:49:50;;;;;;;9.38;2.25;;;;;;;;;;5011515;28;98503;-71
2022/08/05 01:52:28;;;;;;;10.10;2.47;;;;;;;;;;5016720;28;99772;-71
2022/08/05 01:54:56;;;;;;;5.85;2.30;;;;;;;;;;5013937;28;99082;-70
2022/08/05 01:57:30;;;;;;;9.05;2.33;;;;;;;;;;5014391;28;99229;-70
2022/08/05 02:00:17;;;;;;;11.27;2.25;;;;;;;;;;5013734;28;99619;-71
2022/08/05 02:02:56;;;;;;;8.55;2.85;;;;;;;;;;5010265;28;99523;-71
2022/08/05 02:05:26;;;;;;;6.47;2.20;;;;;;;;;;4994840;28;99132;-70
2022/08/05 02:07:54;;;;;;;6.63;2.38;;;;;;;;;;4973559;28;98969;-70
2022/08/05 02:10:29;;;;;;;6.22;2.30;;;;;;;;;;4974066;28;99295;-70
2022/08/05 02:13:07;;;;;;;6.15;2.78;;;;;;;;;;4973919;28;98444;-71
2022/08/05 02:16:01;;;;;;;8.60;2.60;;;;;;;;;;4976745;28;97920;-71
2022/08/05 02:18:31;;;;;;;8.68;2.00;;;;;;;;;;4974270;28;98504;-71
2022/08/05 02:21:03;;;;;;;6.95;2.00;;;;;;;;;;4973499;28;99034;-71
2022/08/05 02:23:35;;;;;;;10.43;2.38;;;;;;;;;;4984235;28;100261;-71
2022/08/05 02:26:06;;;;;;;5.30;1.80;;;;;;;;;;4985329;28;98457;-71
2022/08/05 02:28:37;;;;;;;10.00;2.65;;;;;;;;;;4973183;28;98862;-71
2022/08/05 02:31:11;;;;;;;7.53;1.98;;;;;;;;;;4973153;28;99598;-71
2022/08/05 02:33:43;;;;;;;7.57;2.17;;;;;;;;;;4973058;28;99254;-71
2022/08/05 02:36:15;;;;;;;6.18;2.78;;;;;;;;;;4976494;28;99052;-71
2022/08/05 02:38:45;;;;;;;11.77;2.58;;;;;;;;;;4973859;28;98483;-71
2022/08/05 02:41:19;;;;;;;7.50;2.60;;;;;;;;;;4992064;28;99871;-71
2022/08/05 02:43:49;;;;;;;11.45;3.28;;;;;;;;;;4991622;28;99558;-70
2022/08/05 02:46:37;;;;;;;7.32;2.50;;;;;;;;;;4974463;28;98869;-70
2022/08/05 02:49:19;;;;;;;8.93;2.55;;;;;;;;;;4971352;28;99163;-71
2022/08/05 02:51:47;;;;;;;6.40;2.55;;;;;;;;;;4972619;28;99337;-71
2022/08/05 02:54:31;;;;;;;6.80;2.78;;;;;;;;;;4973912;28;98522;-71
2022/08/05 02:57:03;;;;;;;15.75;2.50;;;;;;;;;;4979597;28;99029;-71
2022/08/05 02:59:35;;;;;;;9.77;2.30;;;;;;;;;;4995655;28;99814;-71
2022/08/05 03:02:20;;;;;;;11.85;3.10;;;;;;;;;;4992581;28;99309;-71
2022/08/05 03:04:47;;;;;;;9.43;3.50;;;;;;;;;;4972419;28;99293;-70
2022/08/05 03:07:18;;;;;;;8.15;3.30;;;;;;;;;;4974013;28;97808;-71
2022/08/05 03:10:05;;;;;;;6.90;2.85;;;;;;;;;;4973092;28;99039;-70
2022/08/05 03:12:33;;;;;;;5.93;2.40;;;;;;;;;;4973315;28;99484;-71
2022/08/05 03:14:59;;;;;;;8.88;3.55;;;;;;;;;;4986585;28;99239;-70
2022/08/05 03:17:27;;;;;;;17.83;3.00;;;;;;;;;;4992369;28;99894;-70
2022/08/05 03:19:53;;;;;;;9.77;2.70;;;;;;;;;;4992646;28;99318;-70
2022/08/05 03:22:23;;;;;;;10.02;3.00;;;;;;;;;;4996353;28;98531;-70
2022/08/05 03:24:58;;;;;;;8.80;2.78;;;;;;;;;;4991189;28;100012;-71
2022/08/05 03:27:44;;;;;;;10.60;2.72;;;;;;;;;;4992587;28;98645;-70
2022/08/05 03:30:27;;;;;;;8.32;2.70;;;;;;;;;;4992820;28;98901;-70
2022/08/05 03:33:00;;;;;;;6.57;2.95;;;;;;;;;;4991392;28;98881;-71
2022/08/05 03:35:27;;;;;;;10.13;2.55;;;;;;;;;;4993009;28;98487;-70
2022/08/05 03:37:57;;;;;;;7.10;2.50;;;;;;;;;;4992195;28;99174;-70
2022/08/05 03:40:23;;;;;;;11.07;2.97;;;;;;;;;;4992199;28;100426;-70
2022/08/05 03:42:58;;;;;;;10.68;2.53;;;;;;;;;;4992602;28;98499;-70
2022/08/05 03:45:41;;;;;;;10.48;2.83;;;;;;;;;;4994801;28;99136;-71
2022/08/05 03:48:24;;;;;;;5.55;2.33;;;;;;;;;;4993562;28;98513;-71
2022/08/05 03:50:52;;;;;;;9.35;2.58;;;;;;;;;;4991701;28;98881;-71
2022/08/05 03:53:25;;;;;;;5.90;2.15;;;;;;;;;;4990912;28;99277;-71
2022/08/05 03:56:16;;;;;;;8.52;2.97;;;;;;;;;;4993490;28;98487;-70
2022/08/05 03:59:02;;;;;;;11.32;2.88;;;;;;;;;;4991990;28;99240;-71
2022/08/05 04:01:31;;;;;;;11.43;3.00;;;;;;;;;;4992252;28;99466;-71
2022/08/05 04:03:58;;;;;;;8.48;2.78;;;;;;;;;;4992402;28;98503;-70
2022/08/05 04:06:36;;;;;;;5.20;2.17;;;;;;;;;;4991909;28;99629;-71
2022/08/05 04:09:04;;;;;;;11.10;2.55;;;;;;;;;;4995375;28;99458;-70
2022/08/05 04:11:32;;;;;;;10.93;2.70;;;;;;;;;;4991887;28;99065;-71
2022/08/05 04:14:14;;;;;;;6.50;2.40;;;;;;;;;;4991282;28;100221;-71
2022/08/05 04:16:44;;;;;;;7.55;2.80;;;;;;;;;;4991263;28;98570;-70
2022/08/05 04:19:12;;;;;;;7.88;2.47;;;;;;;;;;4992696;28;98889;-70
2022/08/05 04:21:38;;;;;;;12.55;2.78;;;;;;;;;;4991445;28;99756;-70
2022/08/05 04:24:25;;;;;;;4.63;2.33;;;;;;;;;;4993389;28;98322;-70
2022/08/05 04:26:53;;;;;;;10.20;2.15;;;;;;;;;;4991816;28;98435;-70
2022/08/05 04:29:19;;;;;;;5.82;2.50;;;;;;;;;;4990860;28;99531;-70
2022/08/05 04:31:46;;;;;;;10.10;2.67;;;;;;;;;;4993908;28;99206;-70
2022/08/05 04:34:14;;;;;;;5.47;2.25;;;;;;;;;;4991242;28;100000;-71
2022/08/05 04:36:59;;;;;;;7.18;2.47;;;;;;;;;;4992242;28;98873;-71
2022/08/05 04:39:28;;;;;;;7.65;2.70;;;;;;;;;;5001070;28;99103;-71
2022/08/05 04:41:55;;;;;;;4.82;2.03;;;;;;;;;;5011065;28;99307;-71
2022/08/05 04:44:21;;;;;;;8.30;2.78;;;;;;;;;;5011843;28;98565;-71
2022/08/05 04:46:56;;;;;;;8.75;2.60;;;;;;;;;;4975519;28;98910;-71
2022/08/05 04:49:23;;;;;;;11.93;2.80;;;;;;;;;;4970955;28;99398;-71
2022/08/05 04:52:10;;;;;;;10.70;3.22;;;;;;;;;;4975376;28;99570;-70
2022/08/05 04:54:36;;;;;;;6.85;2.92;;;;;;;;;;4970671;28;100131;-71
2022/08/05 04:57:03;;;;;;;11.38;3.50;;;;;;;;;;4985930;28;99217;-71
2022/08/05 04:59:30;;;;;;;6.18;2.63;;;;;;;;;;4991597;28;100051;-70
2022/08/05 05:02:05;;;;;;;7.63;2.63;;;;;;;;;;4991753;28;99307;-70
2022/08/05 05:04:52;;;;;;;10.00;2.88;;;;;;;;;;4972269;28;98489;-72
2022/08/05 05:07:27;;;;;;;13.57;3.22;;;;;;;;;;4972351;28;99193;-71
2022/08/05 05:09:55;;;;;;;4.53;2.33;;;;;;;;;;4970688;28;99670;-71
2022/08/05 05:12:23;;;;;;;6.75;2.38;;;;;;;;;;4973676;28;98526;-70
2022/08/05 05:14:52;;;;;;;6.13;2.05;;;;;;;;;;4975184;28;99048;-70
2022/08/05 05:17:19;;;;;;;9.27;2.38;;;;;;;;;;4970652;28;98878;-70
2022/08/05 05:19:53;;;;;;;7.20;2.40;;;;;;;;;;4971308;28;99447;-70
2022/08/05 05:22:22;;;;;;;9.98;2.83;;;;;;;;;;4970564;28;100281;-70
2022/08/05 05:24:53;;;;;;;2.70;1.90;;;;;;;;;;4976630;28;98514;-71
2022/08/05 05:27:24;;;;;;;;;;;;;;;;;;4976588;28;99064;-70
2022/08/05 05:30:11;;;;;;;7.30;2.60;;;;;;;;;;4982654;28;129774;-70
2022/08/05 05:32:55;;;;;;;9.05;3.35;;;;;;;;;;4994674;28;99883;-71
2022/08/05 05:35:21;;;;;;;9.65;3.15;;;;;;;;;;4993745;28;98961;-71
2022/08/05 05:37:48;;;;;;;6.30;3.13;;;;;;;;;;4996195;28;99431;-72
2022/08/05 05:40:26;;;;;;;5.43;2.00;;;;;;;;;;4995355;28;98904;-70
2022/08/05 05:42:53;;;;;;;4.97;2.20;;;;;;;;;;4990007;28;99427;-70
2022/08/05 05:45:21;;;;;;;3.55;1.63;;;;;;;;;;4974573;28;98609;-70
2022/08/05 05:47:50;;;;;;;4.07;2.03;;;;;;;;;;4990005;28;101273;-72
2022/08/05 05:50:35;;;;;;;3.88;2.30;;;;;;;;;;4981249;28;99638;-73
2022/08/05 05:53:10;;;;;;;5.20;2.47;;;;;;;;;;4991738;28;98607;-72
2022/08/05 05:55:48;;;;;;;5.70;2.03;;;;;;;;;;4988870;28;98725;-73
2022/08/05 05:58:26;;;;;;;3.22;1.98;;;;;;;;;;4981686;28;99303;-73
2022/08/05 06:00:57;;;;;;;5.10;2.53;;;;;;;;;;4982510;28;98791;-72
2022/08/05 06:03:31;;;;;;;6.10;2.03;;;;;;;;;;4975074;28;100314;-73
2022/08/05 06:06:18;;;;;;;4.65;2.15;;;;;;;;;;4970811;28;98720;-72
2022/08/05 06:08:49;;;;;;;3.22;1.98;;;;;;;;;;4976617;28;100142;-72
2022/08/05 06:11:15;;;;;;;1.67;1.58;;;;;;;;;;4980036;28;99408;-74
2022/08/05 06:13:42;;;;;;;8.10;1.70;;;;;;;;;;4986798;28;99282;-73
2022/08/05 06:16:19;;;;;;;5.28;1.80;;;;;;;;;;4993585;28;100646;-73
2022/08/05 06:18:56;;;;;;;2.28;1.45;;;;;;;;;;4980931;28;100555;-73
2022/08/05 06:21:26;;;;;;;5.38;1.13;;;;;;;;;;4991865;28;98713;-73
2022/08/05 06:24:06;;;;;;;2.75;1.33;;;;;;;;;;4988020;28;99942;-73
2022/08/05 06:26:36;;;;;;;3.83;1.70;;;;;;;;;;4976230;28;99079;-72
2022/08/05 06:29:04;;;;;;;3.85;1.65;;;;;;;;;;4974080;28;99897;-72
2022/08/05 06:31:51;;;;;;;3.17;1.73;;;;;;;;;;4977248;28;99691;-73
2022/08/05 06:34:17;;;;;;;4.50;1.55;;;;;;;;;;4977741;28;98699;-72
2022/08/05 06:36:45;;;;;;;4.45;1.40;;;;;;;;;;4981780;28;98587;-71
2022/08/05 06:39:24;;;;;;;3.13;1.25;;;;;;;;;;4976479;28;100071;-71
2022/08/05 06:41:54;;;;;;;6.60;1.45;;;;;;;;;;4985684;28;98714;-71
2022/08/05 06:44:24;;;;;;;4.88;1.30;;;;;;;;;;4979127;28;102453;-72
2022/08/05 06:46:51;;;;;;;3.00;1.40;;;;;;;;;;4975921;28;98548;-71
2022/08/05 06:49:19;;;;;;;4.15;1.13;;;;;;;;;;4989577;28;99646;-73
2022/08/05 06:52:06;;;;;;;3.50;1.33;;;;;;;;;;4983857;28;100065;-71
2022/08/05 06:54:53;;;;;;;1.88;0.90;;;;;;;;;;4992272;28;98525;-70
2022/08/05 06:57:20;;;;;;;3.55;1.63;;;;;;;;;;4993853;28;99837;-69
2022/08/05 07:00:06;;;;;;;2.10;1.05;;;;;;;;;;4992870;28;99312;-69
2022/08/05 07:02:44;;;;;;;5.13;1.30;;;;;;;;;;4984569;28;99523;-70
2022/08/05 07:05:11;;;;;;;3.10;1.15;;;;;;;;;;4972657;28;99108;-71
2022/08/05 07:07:47;;;;;;;4.25;1.13;;;;;;;;;;4975798;28;99299;-70
2022/08/05 07:10:14;;;;;;;7.90;1.20;;;;;;;;;;4973228;28;99125;-70
2022/08/05 07:18:30;;;;;;;3.42;1.02;;;;;;;;;;4974522;28;100770;-70
2022/08/05 07:20:56;;;;;;;1.48;1.00;;;;;;;;;;4975647;28;99165;-70
2022/08/05 07:23:30;;;;;;;3.80;1.30;;;;;;;;;;4973519;28;97604;-70
2022/08/05 07:25:56;;;;;;;2.08;1.23;;;;;;;;;;4973651;28;98462;-70
2022/08/05 07:28:24;;;;;;;3.15;1.02;;;;;;;;;;4973811;28;99601;-71
2022/08/05 07:30:51;;;;;;;2.25;0.95;;;;;;;;;;4976050;28;99309;-71
2022/08/05 07:33:20;;;;;;;0.63;0.63;;;;;;;;;;4972660;28;99389;-70
2022/08/05 07:36:02;;;;;;;4.93;1.45;;;;;;;;;;4972980;28;98402;-70
2022/08/05 07:38:46;;;;;;;2.60;0.80;;;;;;;;;;4972084;28;100369;-71
2022/08/05 07:41:16;;;;;;;0.82;0.73;;;;;;;;;;4972401;28;100100;-71
2022/08/05 07:44:05;;;;;;;3.80;1.00;;;;;;;;;;4972534;28;99423;-71
2022/08/05 07:46:44;;;;;;;0.80;0.75;;;;;;;;;;4972444;28;99707;-71
2022/08/05 07:49:14;;;;;;;1.55;0.77;;;;;;;;;;4973741;28;98902;-71
2022/08/05 07:51:40;;;;;;;2.40;0.77;;;;;;;;;;4979301;28;98622;-71
2022/08/05 07:54:22;;;;;;;3.75;0.60;;;;;;;;;;4995793;28;99145;-71
2022/08/05 07:56:55;;;;;;;1.27;0.90;;;;;;;;;;4991964;28;99182;-71
2022/08/05 07:59:38;;;;;;;3.80;0.93;;;;;;;;;;4991434;28;100804;-71
2022/08/05 08:02:09;;;;;;;1.05;0.75;;;;;;;;;;4993094;28;98464;-71
2022/08/05 08:04:46;;;;;;;2.05;0.70;;;;;;;;;;4992780;28;98497;-71
2022/08/05 08:07:13;;;;;;;2.35;0.93;;;;;;;;;;4992046;28;99099;-71
2022/08/05 08:09:40;;;;;;;0.88;0.80;;;;;;;;;;4992313;28;100259;-71
2022/08/05 08:12:07;;;;;;;2.35;0.85;;;;;;;;;;4991904;28;98965;-70
2022/08/05 08:14:54;;;;;;;0.82;0.77;;;;;;;;;;4992661;28;100139;-71
2022/08/05 08:17:20;;;;;;;1.23;0.73;;;;;;;;;;4995223;28;100285;-71
2022/08/05 08:19:48;;;;;;;1.70;0.90;;;;;;;;;;4991160;28;99793;-71
2022/08/05 08:22:35;;;;;;;2.97;0.90;;;;;;;;;;4991464;28;100997;-70
2022/08/05 08:25:02;;;;;;;1.92;0.70;;;;;;;;;;4992246;28;98389;-70
2022/08/05 08:27:42;;;;;;;1.05;0.65;;;;;;;;;;4983370;28;99776;-70
2022/08/05 08:30:13;;;;;;;2.65;1.10;;;;;;;;;;4983441;28;100228;-71
2022/08/05 08:32:59;;;;;;;1.25;0.77;;;;;;;;;;4972121;28;98463;-71
2022/08/05 08:35:33;;;;;;;0.90;0.57;;;;;;;;;;4971844;28;99714;-71
2022/08/05 08:38:06;;;;;;;1.58;0.90;;;;;;;;;;4972203;28;99421;-70
2022/08/05 08:40:34;;;;;;;1.67;0.73;;;;;;;;;;4989795;28;97833;-72
2022/08/05 08:43:01;;;;;;;3.42;0.82;;;;;;;;;;4989625;28;100377;-71
2022/08/05 08:45:48;;;;;;;1.15;1.00;;;;;;;;;;4971323;28;98526;-70
2022/08/05 08:48:17;;;;;;;3.30;0.60;;;;;;;;;;4970749;28;99235;-71
2022/08/05 08:51:04;;;;;;;0.63;0.50;;;;;;;;;;4974144;28;100155;-71
2022/08/05 08:53:50;;;;;;;2.80;0.55;;;;;;;;;;4990670;28;98475;-70
2022/08/05 08:56:18;;;;;;;0.80;0.60;;;;;;;;;;4990666;28;99915;-70
2022/08/05 08:58:47;;;;;;;2.53;0.93;;;;;;;;;;4989907;28;99473;-71
2022/08/05 09:01:15;;;;;;;3.05;0.70;;;;;;;;;;4986907;28;98625;-71
2022/08/05 09:03:48;;;;;;;1.63;0.70;;;;;;;;;;4971274;28;100341;-71
2022/08/05 09:06:21;;;;;;;2.47;1.02;;;;;;;;;;4972710;28;97850;-71
2022/08/05 09:08:53;;;;;;;2.03;0.73;;;;;;;;;;4970246;28;99177;-72
2022/08/05 09:11:20;;;;;;;1.65;0.65;;;;;;;;;;4971895;28;99644;-71
2022/08/05 09:14:07;;;;;;;1.88;0.80;;;;;;;;;;4971543;28;99234;-69
2022/08/05 09:16:53;;;;;;;1.60;0.90;;;;;;;;;;4970853;28;99191;-70
2022/08/05 09:19:20;;;;;;;2.22;0.90;;;;;;;;;;4974320;28;100147;-69
2022/08/05 09:21:55;;;;;;;5.25;0.80;;;;;;;;;;4970590;28;98455;-69
2022/08/05 09:24:55;;;;;;;3.53;0.90;;;;;;;;;;4973496;28;99566;-70
2022/08/05 09:27:34;;;;;;;2.47;1.05;;;;;;;;;;4971366;28;98511;-69
2022/08/05 09:30:21;;;;;;;1.42;0.47;;;;;;;;;;4970374;28;98970;-69
2022/08/05 09:32:48;;;;;;;1.48;0.65;;;;;;;;;;4971835;28;98790;-69
2022/08/05 09:35:17;;;;;;;1.67;1.30;;;;;;;;;;4970810;28;98627;-69
2022/08/05 09:37:53;;;;;;;2.83;1.00;;;;;;;;;;4969591;28;98915;-69
2022/08/05 09:40:42;;;;;;;0.75;0.63;;;;;;;;;;4970500;28;100349;-69
2022/08/05 09:43:31;;;;;;;3.35;0.70;;;;;;;;;;4973042;28;98892;-74
2022/08/05 09:46:21;;;;;;;1.70;0.70;;;;;;;;;;4972423;28;99416;-70
2022/08/05 09:48:54;;;;;;;4.32;0.80;;;;;;;;;;4973639;28;100299;-69
2022/08/05 09:51:41;;;;;;;1.92;0.82;;;;;;;;;;4977411;28;98543;-69
2022/08/05 09:54:07;;;;;;;5.13;0.70;;;;;;;;;;4990670;28;99666;-69
2022/08/05 09:56:36;;;;;;;0.65;0.50;;;;;;;;;;4990986;28;98451;-69
2022/08/05 09:59:07;;;;;;;1.70;0.70;;;;;;;;;;4990795;28;99072;-69
2022/08/05 10:01:35;;;;;;;1.35;0.60;;;;;;;;;;4991077;28;99497;-69
2022/08/05 10:04:09;;;;;;;0.70;0.50;;;;;;;;;;4991116;28;98504;-69
2022/08/05 10:06:39;;;;;;;1.30;0.50;;;;;;;;;;4989675;28;99246;-69
2022/08/05 10:09:12;;;;;;;1.40;0.60;;;;;;;;;;4990625;28;99437;-68
2022/08/05 10:12:06;;;;;;;0.52;0.52;;;;;;;;;;4996131;28;98541;-69
2022/08/05 10:14:52;;;;;;;0.75;0.75;;;;;;;;;;4993485;28;99204;-69
2022/08/05 10:17:19;;;;;;;1.27;0.52;;;;;;;;;;4994199;28;98398;-69
2022/08/05 10:20:06;;;;;;;0.60;0.50;;;;;;;;;;4993859;28;99140;-70
2022/08/05 10:22:38;;;;;;;1.92;0.80;;;;;;;;;;4993542;28;99412;-70
2022/08/05 10:25:08;;;;;;;1.08;0.93;;;;;;;;;;4995580;28;97780;-71
2022/08/05 10:27:39;;;;;;;4.15;0.65;;;;;;;;;;4992841;28;99040;-69
2022/08/05 10:30:25;;;;;;;5.93;1.15;;;;;;;;;;4993630;28;98912;-70
2022/08/05 10:33:12;;;;;;;10.88;1.10;;;;;;;;;;4992544;28;99290;-69
2022/08/05 10:35:40;;;;;;;8.27;0.63;;;;;;;;;;4995909;28;99584;-69
2022/08/05 10:38:11;;;;;;;0.80;0.60;;;;;;;;;;4993592;28;98851;-69
2022/08/05 10:40:42;;;;;;;1.30;0.40;;;;;;;;;;4977780;28;100433;-69
2022/08/05 10:43:22;;;;;;;1.35;0.95;;;;;;;;;;4972926;28;98971;-69
2022/08/05 10:46:00;;;;;;;3.22;0.60;;;;;;;;;;4977582;28;98719;-70
2022/08/05 10:48:32;;;;;;;1.20;0.80;;;;;;;;;;4985713;28;99005;-70
2022/08/05 10:51:18;;;;;;;0.40;0.40;;;;;;;;;;4992946;28;98758;-70
2022/08/05 10:53:50;;;;;;;0.82;0.60;;;;;;;;;;4992678;28;98418;-69
2022/08/05 10:56:20;;;;;;;2.25;0.50;;;;;;;;;;4993254;28;98961;-70
2022/08/05 10:58:51;;;;;;;;;;;;;;;;;;4995499;28;101200;-70
2022/08/05 11:01:30;;;;;;;2.28;0.55;;;;;;;;;;4992944;28;128380;-69
2022/08/05 11:04:20;;;;;;;2.30;0.38;;;;;;;;;;4984436;28;99382;-69
2022/08/05 11:06:59;;;;;;;1.52;0.50;;;;;;;;;;4977065;28;99950;-69
2022/08/05 11:09:39;;;;;;;3.20;0.52;;;;;;;;;;4970867;28;99387;-69
2022/08/05 11:12:30;;;;;;;0.40;0.40;;;;;;;;;;4978192;28;99091;-70
2022/08/05 11:15:16;;;;;;;3.20;0.70;;;;;;;;;;4991931;28;98577;-71
2022/08/05 11:17:47;;;;;;;1.48;0.73;;;;;;;;;;4992777;28;99098;-69
2022/08/05 11:20:33;;;;;;;0.52;0.47;;;;;;;;;;4989243;28;99594;-69
2022/08/05 11:23:20;;;;;;;2.17;0.95;;;;;;;;;;4987897;28;100776;-69
2022/08/05 11:26:03;;;;;;;2.17;0.50;;;;;;;;;;4989262;28;100029;-69
2022/08/05 11:28:34;;;;;;;2.10;0.70;;;;;;;;;;4973779;28;98620;-69
2022/08/05 11:31:01;;;;;;;1.15;0.82;;;;;;;;;;4978091;28;99941;-69
2022/08/05 11:33:36;;;;;;;2.13;0.60;;;;;;;;;;4990459;28;100688;-70
2022/08/05 11:36:15;;;;;;;2.33;0.50;;;;;;;;;;4986588;28;98750;-70
2022/08/05 11:39:00;;;;;;;2.97;0.77;;;;;;;;;;4992098;28;99382;-70
2022/08/05 11:41:28;;;;;;;3.70;0.65;;;;;;;;;;4991577;28;99444;-69
2022/08/05 11:44:15;;;;;;;0.82;0.50;;;;;;;;;;4985165;28;97835;-70
2022/08/05 11:47:02;;;;;;;4.93;1.20;;;;;;;;;;4976971;28;99656;-70
2022/08/05 11:49:40;;;;;;;2.72;0.60;;;;;;;;;;4972132;28;100145;-71
2022/08/05 11:52:22;;;;;;;2.55;0.70;;;;;;;;;;4986923;28;99474;-70
2022/08/05 11:54:55;;;;;;;1.95;0.70;;;;;;;;;;4985204;28;99675;-69
2022/08/05 11:57:26;;;;;;;1.50;0.80;;;;;;;;;;4972080;28;99107;-70
2022/08/05 11:59:56;;;;;;;1.20;0.50;;;;;;;;;;4974046;28;99377;-71
2022/08/05 12:02:26;;;;;;;0.57;0.50;;;;;;;;;;4977799;28;100461;-70
2022/08/05 12:04:58;;;;;;;1.60;0.80;;;;;;;;;;4983424;28;99153;-70
2022/08/05 12:07:31;;;;;;;2.08;0.85;;;;;;;;;;4994745;28;99003;-71
2022/08/05 12:10:18;;;;;;;3.95;0.75;;;;;;;;;;4992639;28;97872;-72
2022/08/05 12:12:48;;;;;;;4.40;0.77;;;;;;;;;;4990738;28;98489;-72
2022/08/05 12:15:25;;;;;;;1.25;0.60;;;;;;;;;;4976818;28;99413;-71
2022/08/05 12:18:04;;;;;;;2.42;0.60;;;;;;;;;;4971406;28;99315;-70
2022/08/05 12:20:37;;;;;;;3.00;0.85;;;;;;;;;;4971277;28;100105;-71
2022/08/05 12:23:10;;;;;;;12.40;1.65;;;;;;;;;;4986132;28;99785;-71
2022/08/05 12:25:52;;;;;;;0.52;0.50;;;;;;;;;;4975632;28;98514;-73
2022/08/05 12:28:35;;;;;;;11.68;8.02;;;;;;;;;;4973039;28;98908;-73
2022/08/05 12:31:03;;;;;;;3.22;0.70;;;;;;;;;;4983056;28;100636;-73
2022/08/05 12:33:30;;;;;;;1.10;0.98;;;;;;;;;;4991339;28;98999;-73
2022/08/05 12:36:05;;;;;;;7.90;4.80;;;;;;;;;;4974611;28;98414;-75
2022/08/05 12:38:40;;;;;;;2.75;1.38;;;;;;;;;;4987515;28;98501;-74
2022/08/05 12:41:14;;;;;;;5.32;3.28;;;;;;;;;;4974757;28;99325;-74
2022/08/05 12:43:52;;;;;;;3.05;2.08;;;;;;;;;;4971397;28;101175;-73
2022/08/05 12:46:24;;;;;;;3.00;1.15;;;;;;;;;;4972045;28;99000;-74
2022/08/05 12:48:55;;;;;;;10.30;1.67;;;;;;;;;;4972174;28;99770;-74
2022/08/05 12:51:26;;;;;;;6.93;1.67;;;;;;;;;;4971103;28;100021;-74
2022/08/05 12:54:20;;;;;;;1.33;0.88;;;;;;;;;;4976623;28;98664;-74
2022/08/05 12:56:53;;;;;;;1.70;1.20;;;;;;;;;;4990479;28;100200;-77
2022/08/05 12:59:21;;;;;;;4.25;0.75;;;;;;;;;;4986442;28;99125;-75
2022/08/05 13:02:09;;;;;;;4.00;1.13;;;;;;;;;;4971475;28;99944;-76
2022/08/05 13:04:37;;;;;;;1.30;0.60;;;;;;;;;;4973713;28;100230;-78
2022/08/05 13:07:24;;;;;;;6.30;1.17;;;;;;;;;;4977806;28;99309;-75
2022/08/05 13:10:15;;;;;;;5.72;0.90;;;;;;;;;;4975426;28;100671;-77
2022/08/05 13:12:45;;;;;;;1.02;0.70;;;;;;;;;;4974838;28;100743;-80
2022/08/05 13:15:27;;;;;;;2.50;0.70;;;;;;;;;;4978369;28;98654;-83
2022/08/05 13:18:14;;;;;;;0.60;0.60;;;;;;;;;;4976739;28;99895;-83
2022/08/05 13:20:45;;;;;;;2.20;0.90;;;;;;;;;;4976732;28;98727;-80
2022/08/05 13:23:12;;;;;;;1.33;0.80;;;;;;;;;;4977490;28;100608;-79
2022/08/05 13:25:41;;;;;;;1.88;0.80;;;;;;;;;;4977404;28;100142;-77
2022/08/05 13:28:24;;;;;;;3.70;1.17;;;;;;;;;;4982112;28;99781;-76
2022/08/05 13:30:50;;;;;;;0.70;0.70;;;;;;;;;;4971017;28;99178;-79
2022/08/05 13:33:19;;;;;;;1.98;0.80;;;;;;;;;;4971495;28;99154;-77
2022/08/05 13:36:05;;;;;;;3.40;0.80;;;;;;;;;;4973773;28;100392;-76
2022/08/05 13:38:34;;;;;;;0.77;0.70;;;;;;;;;;4977514;28;100444;-77
2022/08/05 13:41:03;;;;;;;1.38;0.70;;;;;;;;;;4978346;28;98539;-77
2022/08/05 13:43:31;;;;;;;1.30;0.60;;;;;;;;;;4980111;28;99893;-76
2022/08/05 13:46:11;;;;;;;1.77;0.60;;;;;;;;;;4979865;28;100449;-76
2022/08/05 13:48:38;;;;;;;1.25;0.75;;;;;;;;;;4979675;28;100477;-77
2022/08/05 13:51:26;;;;;;;1.17;0.73;;;;;;;;;;4981188;28;100361;-76
2022/08/05 13:53:54;;;;;;;1.42;0.70;;;;;;;;;;4981399;28;99916;-77
2022/08/05 13:56:24;;;;;;;1.42;0.70;;;;;;;;;;4980225;28;100647;-77
2022/08/05 13:58:50;;;;;;;3.97;0.75;;;;;;;;;;4979898;28;100340;-80
2022/08/05 14:01:18;;;;;;;2.92;0.73;;;;;;;;;;4978751;28;100401;-73
2022/08/05 14:06:41;;;;;;;4.85;1.33;;;;;;;;;;4976042;28;100397;-73
2022/08/05 14:09:13;;;;;;;6.82;0.75;;;;;;;;;;4976039;28;98634;-73
2022/08/05 14:11:41;;;;;;;1.83;0.80;;;;;;;;;;4977481;28;99935;-73
2022/08/05 14:14:27;;;;;;;2.22;0.80;;;;;;;;;;4976639;28;100469;-73
2022/08/05 14:17:01;;;;;;;2.80;0.80;;;;;;;;;;4983476;28;98602;-73
2022/08/05 14:19:28;;;;;;;4.00;0.90;;;;;;;;;;4992128;27;99284;-73
2022/08/05 14:21:54;;;;;;;4.43;0.88;;;;;;;;;;4993562;28;100313;-73
2022/08/05 14:24:38;;;;;;;;;;;;;;;;;;4998222;28;98522;-73
2022/08/05 14:27:05;;;;;;;1.75;0.90;;;;;;;;;;4993153;28;130628;-73
2022/08/05 14:29:44;;;;;;;2.17;1.00;;;;;;;;;;4976153;28;100073;-73
2022/08/05 14:32:17;;;;;;;1.17;0.73;;;;;;;;;;4980176;28;99196;-73
2022/08/05 14:34:54;;;;;;;4.18;0.80;;;;;;;;;;4993735;28;99249;-73
2022/08/05 14:37:23;;;;;;;4.35;1.00;;;;;;;;;;4993971;28;98677;-73
2022/08/05 14:40:09;;;;;;;4.72;1.02;;;;;;;;;;4980666;28;100182;-73
2022/08/05 14:42:40;;;;;;;0.68;0.68;;;;;;;;;;4982716;28;99631;-73
2022/08/05 14:45:08;;;;;;;4.20;0.60;;;;;;;;;;4978765;28;97853;-72
2022/08/05 14:47:34;;;;;;;1.17;0.77;;;;;;;;;;4979399;28;98645;-73
2022/08/05 14:50:20;;;;;;;6.32;2.80;;;;;;;;;;4981709;28;99340;-73
2022/08/05 14:52:50;;;;;;;3.88;0.70;;;;;;;;;;4978839;28;100082;-73
2022/08/05 14:55:24;;;;;;;3.58;0.95;;;;;;;;;;4981383;28;100306;-73
2022/08/05 14:57:56;;;;;;;5.63;0.90;;;;;;;;;;4975211;28;98537;-72
2022/08/05 15:00:23;;;;;;;1.50;0.93;;;;;;;;;;4972715;28;100300;-73
2022/08/05 15:02:53;;;;;;;2.05;0.80;;;;;;;;;;4972914;28;100141;-72
2022/08/05 15:05:20;;;;;;;7.15;2.05;;;;;;;;;;4978868;28;99133;-71
2022/08/05 15:07:46;;;;;;;5.63;1.20;;;;;;;;;;4992765;28;99015;-71
2022/08/05 15:10:32;;;;;;;2.47;1.00;;;;;;;;;;4996795;28;98596;-71
2022/08/05 15:13:02;;;;;;;2.72;0.75;;;;;;;;;;4993269;28;98553;-71
2022/08/05 15:15:30;;;;;;;1.20;0.77;;;;;;;;;;4991645;28;99438;-71
2022/08/05 15:18:16;;;;;;;4.53;1.08;;;;;;;;;;4992778;28;99304;-71
2022/08/05 15:20:43;;;;;;;3.85;0.80;;;;;;;;;;4992174;28;99912;-71
2022/08/05 15:23:11;;;;;;;0.50;0.50;;;;;;;;;;4992013;28;99396;-71
2022/08/05 15:25:41;;;;;;;3.38;0.88;;;;;;;;;;4986933;28;99804;-72
2022/08/05 15:28:21;;;;;;;4.63;1.20;;;;;;;;;;4983304;28;100413;-72
2022/08/05 15:30:53;;;;;;;;;;;;;;;;;;4992321;28;100264;-71
2022/08/05 15:33:19;;;;;;;3.10;1.42;;;;;;;;;;4977823;28;98393;-71